sensor_id;sensor_type;location;lat;lon;timestamp;pressure;altitude;pressure_sealevel;temperature;humidity
59009;BME280;44794;42.652;23.318;2022-10-17T00:00:59;95755.09;;;5.75;89.44
59009;BME280;44794;42.652;23.318;2022-10-17T00:03:24;95758.81;;;5.66;89.75
59009;BME280;44794;42.652;23.318;2022-10-17T00:05:50;95757.28;;;5.62;89.89
59009;BME280;44794;42.652;23.318;2022-10-17T00:08:17;95761.56;;;5.62;90.36
59009;BME280;44794;42.652;23.318;2022-10-17T00:10:43;95747.22;;;5.55;90.51
59009;BME280;44794;42.652;23.318;2022-10-17T00:13:09;95750.72;;;5.54;90.77
59009;BME280;44794;42.652;23.318;2022-10-17T00:15:35;95750.88;;;5.49;90.90
59009;BME280;44794;42.652;23.318;2022-10-17T00:18:01;95749.31;;;5.45;91.34
59009;BME280;44794;42.652;23.318;2022-10-17T00:20:26;95743.41;;;5.42;91.66
59009;BME280;44794;42.652;23.318;2022-10-17T00:22:52;95746.06;;;5.40;91.92
59009;BME280;44794;42.652;23.318;2022-10-17T00:25:18;95743.66;;;5.36;92.09
59009;BME280;44794;42.652;23.318;2022-10-17T00:27:43;95746.34;;;5.33;92.18
59009;BME280;44794;42.652;23.318;2022-10-17T00:30:12;95740.50;;;5.28;92.19
59009;BME280;44794;42.652;23.318;2022-10-17T00:32:38;95740.66;;;5.23;92.38
59009;BME280;44794;42.652;23.318;2022-10-17T00:35:04;95735.84;;;5.15;92.39
59009;BME280;44794;42.652;23.318;2022-10-17T00:37:31;95742.69;;;5.16;92.61
59009;BME280;44794;42.652;23.318;2022-10-17T00:39:56;95745.44;;;5.10;92.63
59009;BME280;44794;42.652;23.318;2022-10-17T00:42:22;95745.59;;;5.05;92.76
59009;BME280;44794;42.652;23.318;2022-10-17T00:47:17;95753.53;;;4.99;93.17
59009;BME280;44794;42.652;23.318;2022-10-17T00:49:44;95748.34;;;5.01;93.61
59009;BME280;44794;42.652;23.318;2022-10-17T00:52:21;95748.34;;;5.01;93.86
59009;BME280;44794;42.652;23.318;2022-10-17T00:54:55;95743.97;;;5.03;94.16
59009;BME280;44794;42.652;23.318;2022-10-17T00:57:22;95736.09;;;5.07;94.83
59009;BME280;44794;42.652;23.318;2022-10-17T00:59:51;95734.31;;;5.09;95.09
59009;BME280;44794;42.652;23.318;2022-10-17T01:02:20;95739.41;;;5.11;95.21
59009;BME280;44794;42.652;23.318;2022-10-17T01:04:47;95735.06;;;5.13;95.39
59009;BME280;44794;42.652;23.318;2022-10-17T01:07:15;95725.66;;;5.12;95.55
59009;BME280;44794;42.652;23.318;2022-10-17T01:09:42;95738.28;;;5.18;95.49
59009;BME280;44794;42.652;23.318;2022-10-17T01:12:51;95740.28;;;5.10;95.41
59009;BME280;44794;42.652;23.318;2022-10-17T01:15:36;95735.38;;;5.04;95.72
59009;BME280;44794;42.652;23.318;2022-10-17T01:29:08;95730.44;;;4.98;95.44
59009;BME280;44794;42.652;23.318;2022-10-17T01:31:50;95737.47;;;4.93;95.35
59009;BME280;44794;42.652;23.318;2022-10-17T01:34:40;95739.31;;;4.89;95.33
59009;BME280;44794;42.652;23.318;2022-10-17T01:37:24;95732.44;;;4.90;95.61
59009;BME280;44794;42.652;23.318;2022-10-17T01:39:59;95732.22;;;4.96;95.90
59009;BME280;44794;42.652;23.318;2022-10-17T01:42:29;95728.97;;;4.91;96.05
59009;BME280;44794;42.652;23.318;2022-10-17T01:47:28;95736.00;;;4.86;96.20
59009;BME280;44794;42.652;23.318;2022-10-17T01:49:58;95735.00;;;4.90;96.36
59009;BME280;44794;42.652;23.318;2022-10-17T01:52:53;95739.84;;;4.99;96.12
59009;BME280;44794;42.652;23.318;2022-10-17T01:55:28;95737.88;;;5.05;95.84
59009;BME280;44794;42.652;23.318;2022-10-17T01:58:04;95743.03;;;5.05;95.29
59009;BME280;44794;42.652;23.318;2022-10-17T02:00:31;95749.91;;;5.05;94.81
59009;BME280;44794;42.652;23.318;2022-10-17T02:03:01;95755.22;;;5.00;94.40
59009;BME280;44794;42.652;23.318;2022-10-17T02:05:32;95754.59;;;4.94;94.16
59009;BME280;44794;42.652;23.318;2022-10-17T02:07:59;95759.63;;;4.97;93.92
59009;BME280;44794;42.652;23.318;2022-10-17T02:11:03;95770.06;;;4.94;93.56
59009;BME280;44794;42.652;23.318;2022-10-17T02:19:15;95762.78;;;4.80;93.04
59009;BME280;44794;42.652;23.318;2022-10-17T02:21:52;95761.25;;;4.75;93.16
59009;BME280;44794;42.652;23.318;2022-10-17T02:24:31;95762.25;;;4.71;93.32
59009;BME280;44794;42.652;23.318;2022-10-17T02:29:46;95774.31;;;4.69;93.61
59009;BME280;44794;42.652;23.318;2022-10-17T02:32:39;95765.91;;;4.64;93.43
59009;BME280;44794;42.652;23.318;2022-10-17T02:35:09;95776.41;;;4.58;93.60
59009;BME280;44794;42.652;23.318;2022-10-17T02:37:39;95783.31;;;4.56;93.73
59009;BME280;44794;42.652;23.318;2022-10-17T02:40:07;95779.19;;;4.52;93.82
59009;BME280;44794;42.652;23.318;2022-10-17T02:42:34;95785.22;;;4.51;93.96
59009;BME280;44794;42.652;23.318;2022-10-17T02:45:00;95787.13;;;4.44;94.16
59009;BME280;44794;42.652;23.318;2022-10-17T02:47:33;95781.28;;;4.40;94.45
59009;BME280;44794;42.652;23.318;2022-10-17T02:49:59;95789.81;;;4.42;94.78
59009;BME280;44794;42.652;23.318;2022-10-17T02:52:55;95794.19;;;4.38;94.67
59009;BME280;44794;42.652;23.318;2022-10-17T02:55:29;95792.59;;;4.34;94.74
59009;BME280;44794;42.652;23.318;2022-10-17T02:57:59;95795.16;;;4.34;94.82
59009;BME280;44794;42.652;23.318;2022-10-17T03:00:27;95792.72;;;4.31;95.22
59009;BME280;44794;42.652;23.318;2022-10-17T03:02:53;95792.78;;;4.28;95.00
59009;BME280;44794;42.652;23.318;2022-10-17T03:05:24;95791.09;;;4.27;95.52
59009;BME280;44794;42.652;23.318;2022-10-17T03:07:50;95792.88;;;4.25;95.47
59009;BME280;44794;42.652;23.318;2022-10-17T03:10:16;95789.72;;;4.17;95.56
59009;BME280;44794;42.652;23.318;2022-10-17T03:12:41;95800.81;;;4.18;95.57
59009;BME280;44794;42.652;23.318;2022-10-17T03:15:08;95795.88;;;4.12;95.80
59009;BME280;44794;42.652;23.318;2022-10-17T03:17:34;95799.34;;;4.11;96.05
59009;BME280;44794;42.652;23.318;2022-10-17T03:20:00;95799.56;;;4.03;96.18
59009;BME280;44794;42.652;23.318;2022-10-17T03:22:25;95794.59;;;3.97;96.24
59009;BME280;44794;42.652;23.318;2022-10-17T03:24:51;95794.56;;;3.99;96.34
59009;BME280;44794;42.652;23.318;2022-10-17T03:27:16;95791.13;;;3.98;96.55
59009;BME280;44794;42.652;23.318;2022-10-17T03:29:42;95795.41;;;3.99;96.69
59009;BME280;44794;42.652;23.318;2022-10-17T03:32:07;95800.53;;;3.99;96.90
59009;BME280;44794;42.652;23.318;2022-10-17T03:34:33;95798.06;;;3.96;97.02
59009;BME280;44794;42.652;23.318;2022-10-17T03:36:58;95794.81;;;3.90;96.94
59009;BME280;44794;42.652;23.318;2022-10-17T03:39:23;95800.03;;;3.87;96.93
59009;BME280;44794;42.652;23.318;2022-10-17T03:41:49;95800.09;;;3.85;97.11
59009;BME280;44794;42.652;23.318;2022-10-17T03:44:14;95800.97;;;3.86;97.43
59009;BME280;44794;42.652;23.318;2022-10-17T03:46:40;95799.72;;;3.97;97.43
59009;BME280;44794;42.652;23.318;2022-10-17T03:49:08;95800.78;;;3.92;97.61
59009;BME280;44794;42.652;23.318;2022-10-17T03:51:33;95805.09;;;3.90;97.52
59009;BME280;44794;42.652;23.318;2022-10-17T03:53:59;95808.59;;;3.87;97.71
59009;BME280;44794;42.652;23.318;2022-10-17T03:56:25;95806.03;;;3.87;98.08
59009;BME280;44794;42.652;23.318;2022-10-17T03:58:53;95806.16;;;3.83;97.99
59009;BME280;44794;42.652;23.318;2022-10-17T04:01:18;95804.53;;;3.80;98.21
59009;BME280;44794;42.652;23.318;2022-10-17T04:03:49;95800.34;;;3.76;98.31
59009;BME280;44794;42.652;23.318;2022-10-17T04:06:15;95803.84;;;3.74;98.37
59009;BME280;44794;42.652;23.318;2022-10-17T04:08:41;95796.91;;;3.77;98.62
59009;BME280;44794;42.652;23.318;2022-10-17T04:11:07;95793.38;;;3.81;98.79
59009;BME280;44794;42.652;23.318;2022-10-17T04:13:33;95801.16;;;3.78;98.96
59009;BME280;44794;42.652;23.318;2022-10-17T04:16:01;95799.41;;;3.80;98.98
59009;BME280;44794;42.652;23.318;2022-10-17T04:18:27;95807.91;;;3.82;99.12
59009;BME280;44794;42.652;23.318;2022-10-17T04:20:53;95806.13;;;3.84;99.23
59009;BME280;44794;42.652;23.318;2022-10-17T04:23:19;95801.09;;;3.81;99.27
59009;BME280;44794;42.652;23.318;2022-10-17T04:25:45;95809.66;;;3.80;99.56
59009;BME280;44794;42.652;23.318;2022-10-17T04:28:10;95804.09;;;3.95;100.00
59009;BME280;44794;42.652;23.318;2022-10-17T04:30:36;95798.78;;;4.01;100.00
59009;BME280;44794;42.652;23.318;2022-10-17T04:33:01;95798.50;;;4.10;100.00
59009;BME280;44794;42.652;23.318;2022-10-17T04:35:27;95795.94;;;4.10;100.00
59009;BME280;44794;42.652;23.318;2022-10-17T04:37:52;95799.41;;;4.08;100.00
59009;BME280;44794;42.652;23.318;2022-10-17T04:40:18;95796.84;;;4.08;100.00
59009;BME280;44794;42.652;23.318;2022-10-17T04:42:44;95802.03;;;4.06;100.00
59009;BME280;44794;42.652;23.318;2022-10-17T04:45:09;95805.41;;;4.08;100.00
59009;BME280;44794;42.652;23.318;2022-10-17T04:47:35;95809.75;;;4.06;100.00
59009;BME280;44794;42.652;23.318;2022-10-17T04:50:00;95815.56;;;4.11;100.00
59009;BME280;44794;42.652;23.318;2022-10-17T04:52:26;95819.84;;;4.12;100.00
59009;BME280;44794;42.652;23.318;2022-10-17T04:54:51;95818.31;;;4.07;100.00
59009;BME280;44794;42.652;23.318;2022-10-17T04:57:18;95816.53;;;4.09;99.99
59009;BME280;44794;42.652;23.318;2022-10-17T04:59:44;95819.63;;;4.20;100.00
59009;BME280;44794;42.652;23.318;2022-10-17T05:02:10;95816.00;;;4.25;100.00
59009;BME280;44794;42.652;23.318;2022-10-17T05:04:35;95819.91;;;4.38;100.00
59009;BME280;44794;42.652;23.318;2022-10-17T05:07:01;95829.25;;;4.41;99.68
59009;BME280;44794;42.652;23.318;2022-10-17T05:09:26;95826.72;;;4.39;99.55
59009;BME280;44794;42.652;23.318;2022-10-17T05:11:52;95838.59;;;4.43;99.43
59009;BME280;44794;42.652;23.318;2022-10-17T05:14:17;95841.97;;;4.45;99.00
59009;BME280;44794;42.652;23.318;2022-10-17T05:16:43;95847.00;;;4.48;98.75
59009;BME280;44794;42.652;23.318;2022-10-17T05:19:10;95846.94;;;4.51;98.44
59009;BME280;44794;42.652;23.318;2022-10-17T05:21:35;95850.66;;;4.68;98.27
59009;BME280;44794;42.652;23.318;2022-10-17T05:24:04;95843.34;;;5.81;99.84
59009;BME280;44794;42.652;23.318;2022-10-17T05:26:30;95821.50;;;7.41;100.00
59009;BME280;44794;42.652;23.318;2022-10-17T05:28:55;95812.19;;;8.68;100.00
59009;BME280;44794;42.652;23.318;2022-10-17T05:31:21;95829.22;;;9.60;99.49
59009;BME280;44794;42.652;23.318;2022-10-17T05:33:46;95878.19;;;10.32;92.69
59009;BME280;44794;42.652;23.318;2022-10-17T05:36:12;95921.75;;;10.59;85.24
59009;BME280;44794;42.652;23.318;2022-10-17T05:38:38;95947.72;;;10.59;79.55
59009;BME280;44794;42.652;23.318;2022-10-17T05:41:04;95948.94;;;10.20;79.35
59009;BME280;44794;42.652;23.318;2022-10-17T05:43:30;95954.00;;;9.54;79.89
59009;BME280;44794;42.652;23.318;2022-10-17T05:45:56;95956.25;;;8.89;79.80
59009;BME280;44794;42.652;23.318;2022-10-17T05:48:22;95962.03;;;8.39;79.48
59009;BME280;44794;42.652;23.318;2022-10-17T05:50:48;95957.97;;;8.12;79.87
59009;BME280;44794;42.652;23.318;2022-10-17T05:53:14;95966.69;;;7.70;79.78
59009;BME280;44794;42.652;23.318;2022-10-17T05:55:40;95970.19;;;7.69;80.32
59009;BME280;44794;42.652;23.318;2022-10-17T05:58:06;95968.91;;;7.59;80.54
59009;BME280;44794;42.652;23.318;2022-10-17T06:00:32;95978.75;;;7.28;80.46
59009;BME280;44794;42.652;23.318;2022-10-17T06:02:58;95976.91;;;7.10;81.10
59009;BME280;44794;42.652;23.318;2022-10-17T06:05:23;95981.13;;;7.13;81.73
59009;BME280;44794;42.652;23.318;2022-10-17T06:07:48;95983.72;;;7.11;82.43
59009;BME280;44794;42.652;23.318;2022-10-17T06:10:17;95981.69;;;7.19;83.02
59009;BME280;44794;42.652;23.318;2022-10-17T06:12:43;95984.97;;;7.24;83.05
59009;BME280;44794;42.652;23.318;2022-10-17T06:15:09;95969.22;;;7.30;83.19
59009;BME280;44794;42.652;23.318;2022-10-17T06:17:35;95982.78;;;7.35;82.68
59009;BME280;44794;42.652;23.318;2022-10-17T06:20:01;95985.88;;;7.23;81.95
59009;BME280;44794;42.652;23.318;2022-10-17T06:22:26;95989.34;;;7.22;82.00
59009;BME280;44794;42.652;23.318;2022-10-17T06:24:52;95995.47;;;7.20;82.29
59009;BME280;44794;42.652;23.318;2022-10-17T06:27:18;96001.91;;;7.31;81.96
59009;BME280;44794;42.652;23.318;2022-10-17T06:29:45;96004.91;;;7.42;82.27
59009;BME280;44794;42.652;23.318;2022-10-17T06:32:11;96005.63;;;7.45;82.41
59009;BME280;44794;42.652;23.318;2022-10-17T06:34:36;95996.66;;;7.54;82.81
59009;BME280;44794;42.652;23.318;2022-10-17T06:37:02;96008.25;;;7.65;82.34
59009;BME280;44794;42.652;23.318;2022-10-17T06:39:27;96010.47;;;7.74;81.75
59009;BME280;44794;42.652;23.318;2022-10-17T06:42:01;96014.56;;;7.80;80.29
59009;BME280;44794;42.652;23.318;2022-10-17T06:44:27;96022.81;;;7.88;80.67
59009;BME280;44794;42.652;23.318;2022-10-17T06:46:56;96021.09;;;7.88;80.58
59009;BME280;44794;42.652;23.318;2022-10-17T06:49:22;96023.31;;;7.97;80.39
59009;BME280;44794;42.652;23.318;2022-10-17T06:51:48;96028.22;;;7.83;78.86
59009;BME280;44794;42.652;23.318;2022-10-17T06:54:14;96026.63;;;8.01;79.04
59009;BME280;44794;42.652;23.318;2022-10-17T06:56:40;96015.63;;;8.16;78.68
59009;BME280;44794;42.652;23.318;2022-10-17T06:59:05;96021.22;;;8.26;78.56
59009;BME280;44794;42.652;23.318;2022-10-17T07:01:31;96021.47;;;8.40;78.88
59009;BME280;44794;42.652;23.318;2022-10-17T07:03:58;96027.16;;;8.48;78.76
59009;BME280;44794;42.652;23.318;2022-10-17T07:06:24;96029.22;;;8.60;77.76
59009;BME280;44794;42.652;23.318;2022-10-17T07:08:49;96026.44;;;8.65;76.93
59009;BME280;44794;42.652;23.318;2022-10-17T07:11:19;96027.47;;;8.61;75.42
59009;BME280;44794;42.652;23.318;2022-10-17T07:13:45;96029.16;;;8.62;76.24
59009;BME280;44794;42.652;23.318;2022-10-17T07:16:12;96032.47;;;8.84;75.53
59009;BME280;44794;42.652;23.318;2022-10-17T07:18:39;96034.47;;;8.97;74.17
59009;BME280;44794;42.652;23.318;2022-10-17T07:21:05;96033.25;;;8.86;74.82
59009;BME280;44794;42.652;23.318;2022-10-17T07:23:31;96033.56;;;8.98;74.70
59009;BME280;44794;42.652;23.318;2022-10-17T07:26:07;96035.72;;;9.07;74.70
59009;BME280;44794;42.652;23.318;2022-10-17T07:28:34;96028.31;;;9.18;75.22
59009;BME280;44794;42.652;23.318;2022-10-17T07:31:05;96037.69;;;9.39;75.18
59009;BME280;44794;42.652;23.318;2022-10-17T07:33:31;96041.88;;;9.60;74.48
59009;BME280;44794;42.652;23.318;2022-10-17T07:36:00;96041.72;;;9.63;72.60
59009;BME280;44794;42.652;23.318;2022-10-17T07:38:29;96056.22;;;9.85;72.52
59009;BME280;44794;42.652;23.318;2022-10-17T07:40:59;96050.50;;;9.95;71.39
59009;BME280;44794;42.652;23.318;2022-10-17T07:43:25;96058.78;;;10.03;70.25
59009;BME280;44794;42.652;23.318;2022-10-17T07:45:52;96068.63;;;10.14;70.25
59009;BME280;44794;42.652;23.318;2022-10-17T07:48:18;96062.63;;;10.30;69.63
59009;BME280;44794;42.652;23.318;2022-10-17T07:50:44;96059.81;;;10.35;68.72
59009;BME280;44794;42.652;23.318;2022-10-17T07:53:10;96061.88;;;10.45;68.79
59009;BME280;44794;42.652;23.318;2022-10-17T07:55:36;96065.69;;;10.55;68.17
59009;BME280;44794;42.652;23.318;2022-10-17T07:58:02;96060.78;;;10.66;68.66
59009;BME280;44794;42.652;23.318;2022-10-17T08:00:27;96064.91;;;10.70;67.61
59009;BME280;44794;42.652;23.318;2022-10-17T08:02:53;96059.69;;;10.87;67.25
59009;BME280;44794;42.652;23.318;2022-10-17T08:05:18;96061.75;;;10.97;66.27
59009;BME280;44794;42.652;23.318;2022-10-17T08:07:44;96062.41;;;11.01;65.79
59009;BME280;44794;42.652;23.318;2022-10-17T08:10:14;96057.63;;;11.09;65.86
59009;BME280;44794;42.652;23.318;2022-10-17T08:12:39;96057.75;;;11.22;64.55
59009;BME280;44794;42.652;23.318;2022-10-17T08:15:06;96062.06;;;11.39;64.20
59009;BME280;44794;42.652;23.318;2022-10-17T08:17:36;96059.50;;;11.54;62.39
59009;BME280;44794;42.652;23.318;2022-10-17T08:20:05;96064.22;;;11.63;62.33
59009;BME280;44794;42.652;23.318;2022-10-17T08:22:31;96063.22;;;11.66;61.53
59009;BME280;44794;42.652;23.318;2022-10-17T08:24:57;96049.75;;;11.89;59.12
59009;BME280;44794;42.652;23.318;2022-10-17T08:27:22;96051.06;;;11.96;58.11
59009;BME280;44794;42.652;23.318;2022-10-17T08:29:50;96061.06;;;12.03;59.00
59009;BME280;44794;42.652;23.318;2022-10-17T08:32:25;96061.91;;;12.19;58.35
59009;BME280;44794;42.652;23.318;2022-10-17T08:34:51;96056.91;;;12.30;58.47
59009;BME280;44794;42.652;23.318;2022-10-17T08:37:17;96060.28;;;12.32;57.17
59009;BME280;44794;42.652;23.318;2022-10-17T08:39:43;96052.03;;;12.53;57.83
59009;BME280;44794;42.652;23.318;2022-10-17T08:48:09;96067.13;;;12.91;54.75
59009;BME280;44794;42.652;23.318;2022-10-17T08:50:44;96068.84;;;13.06;53.36
59009;BME280;44794;42.652;23.318;2022-10-17T08:53:32;96066.06;;;13.23;51.95
59009;BME280;44794;42.652;23.318;2022-10-17T08:56:04;96066.50;;;13.30;52.64
59009;BME280;44794;42.652;23.318;2022-10-17T08:58:33;96067.44;;;13.43;51.53
59009;BME280;44794;42.652;23.318;2022-10-17T09:06:56;96059.28;;;13.75;49.93
59009;BME280;44794;42.652;23.318;2022-10-17T09:09:35;96070.97;;;13.96;49.21
59009;BME280;44794;42.652;23.318;2022-10-17T09:17:44;96062.47;;;14.06;47.94
59009;BME280;44794;42.652;23.318;2022-10-17T09:20:27;96070.19;;;14.08;47.63
59009;BME280;44794;42.652;23.318;2022-10-17T09:22:57;96077.44;;;14.30;46.33
59009;BME280;44794;42.652;23.318;2022-10-17T09:25:24;96071.72;;;14.38;46.07
59009;BME280;44794;42.652;23.318;2022-10-17T09:28:05;96066.91;;;14.44;46.55
59009;BME280;44794;42.652;23.318;2022-10-17T09:33:09;96070.81;;;14.51;45.17
59009;BME280;44794;42.652;23.318;2022-10-17T09:35:36;96072.47;;;14.52;45.68
59009;BME280;44794;42.652;23.318;2022-10-17T09:38:02;96071.44;;;14.55;43.59
59009;BME280;44794;42.652;23.318;2022-10-17T09:40:33;96064.38;;;14.69;45.83
59009;BME280;44794;42.652;23.318;2022-10-17T09:43:04;96062.69;;;14.81;44.57
59009;BME280;44794;42.652;23.318;2022-10-17T09:45:29;96065.41;;;14.79;44.09
59009;BME280;44794;42.652;23.318;2022-10-17T09:48:24;96061.88;;;14.93;43.73
59009;BME280;44794;42.652;23.318;2022-10-17T09:50:51;96072.97;;;15.08;42.75
59009;BME280;44794;42.652;23.318;2022-10-17T09:53:25;96068.47;;;15.10;43.61
59009;BME280;44794;42.652;23.318;2022-10-17T09:55:56;96055.00;;;15.04;44.07
59009;BME280;44794;42.652;23.318;2022-10-17T09:58:22;96058.53;;;15.15;43.87
59009;BME280;44794;42.652;23.318;2022-10-17T10:00:48;96056.69;;;15.30;43.73
59009;BME280;44794;42.652;23.318;2022-10-17T10:06:00;96056.16;;;15.37;41.56
59009;BME280;44794;42.652;23.318;2022-10-17T10:08:30;96053.53;;;15.37;41.23
59009;BME280;44794;42.652;23.318;2022-10-17T10:11:03;96048.16;;;15.51;41.08
59009;BME280;44794;42.652;23.318;2022-10-17T10:13:31;96055.72;;;15.56;39.70
59009;BME280;44794;42.652;23.318;2022-10-17T10:18:42;96039.94;;;15.80;38.95
59009;BME280;44794;42.652;23.318;2022-10-17T10:21:18;96053.84;;;15.93;36.85
59009;BME280;44794;42.652;23.318;2022-10-17T10:24:13;96043.97;;;15.97;37.55
59009;BME280;44794;42.652;23.318;2022-10-17T10:26:43;96045.53;;;15.99;37.64
59009;BME280;44794;42.652;23.318;2022-10-17T10:29:22;96035.78;;;16.01;38.14
59009;BME280;44794;42.652;23.318;2022-10-17T10:31:51;96041.03;;;16.01;38.36
59009;BME280;44794;42.652;23.318;2022-10-17T10:34:27;96028.44;;;16.06;38.10
59009;BME280;44794;42.652;23.318;2022-10-17T10:37:00;96036.63;;;16.02;37.90
59009;BME280;44794;42.652;23.318;2022-10-17T10:39:31;96024.09;;;16.18;37.17
59009;BME280;44794;42.652;23.318;2022-10-17T10:41:59;96019.81;;;16.28;36.87
59009;BME280;44794;42.652;23.318;2022-10-17T10:44:28;96025.72;;;16.31;36.09
59009;BME280;44794;42.652;23.318;2022-10-17T10:49:41;96012.72;;;16.30;37.25
59009;BME280;44794;42.652;23.318;2022-10-17T10:52:10;96010.38;;;16.38;36.68
59009;BME280;44794;42.652;23.318;2022-10-17T10:54:45;96001.44;;;16.40;37.73
59009;BME280;44794;42.652;23.318;2022-10-17T10:57:16;95999.84;;;16.61;36.37
59009;BME280;44794;42.652;23.318;2022-10-17T11:05:18;95996.00;;;16.54;36.25
59009;BME280;44794;42.652;23.318;2022-10-17T11:07:52;95996.28;;;16.62;36.67
59009;BME280;44794;42.652;23.318;2022-10-17T11:10:31;95997.50;;;16.69;35.24
59009;BME280;44794;42.652;23.318;2022-10-17T11:13:12;95995.72;;;16.80;35.05
59009;BME280;44794;42.652;23.318;2022-10-17T11:18:57;95993.50;;;16.98;35.02
59009;BME280;44794;42.652;23.318;2022-10-17T11:21:46;95986.34;;;17.00;35.42
59009;BME280;44794;42.652;23.318;2022-10-17T11:24:49;95987.78;;;17.04;34.59
59009;BME280;44794;42.652;23.318;2022-10-17T11:27:22;95983.00;;;17.09;34.72
59009;BME280;44794;42.652;23.318;2022-10-17T11:29:49;95985.41;;;17.12;34.44
59009;BME280;44794;42.652;23.318;2022-10-17T11:32:20;95987.53;;;17.07;34.88
59009;BME280;44794;42.652;23.318;2022-10-17T11:34:56;95977.16;;;17.16;34.00
59009;BME280;44794;42.652;23.318;2022-10-17T11:37:27;95981.34;;;17.19;34.97
59009;BME280;44794;42.652;23.318;2022-10-17T11:40:15;95979.44;;;17.21;33.99
59009;BME280;44794;42.652;23.318;2022-10-17T11:45:26;95986.00;;;17.15;33.70
59009;BME280;44794;42.652;23.318;2022-10-17T11:48:21;95978.25;;;17.14;34.44
59009;BME280;44794;42.652;23.318;2022-10-17T11:50:54;95969.41;;;17.26;34.35
59009;BME280;44794;42.652;23.318;2022-10-17T11:53:28;95975.53;;;17.37;34.38
59009;BME280;44794;42.652;23.318;2022-10-17T11:55:57;95968.25;;;17.40;34.56
59009;BME280;44794;42.652;23.318;2022-10-17T11:58:54;95959.28;;;17.43;34.18
59009;BME280;44794;42.652;23.318;2022-10-17T12:01:40;95975.63;;;17.46;34.31
59009;BME280;44794;42.652;23.318;2022-10-17T12:04:24;95968.72;;;17.45;34.06
59009;BME280;44794;42.652;23.318;2022-10-17T12:09:42;95960.34;;;17.51;34.63
59009;BME280;44794;42.652;23.318;2022-10-17T12:12:23;95967.63;;;17.59;34.26
59009;BME280;44794;42.652;23.318;2022-10-17T12:14:50;95964.63;;;17.52;33.57
59009;BME280;44794;42.652;23.318;2022-10-17T12:22:57;95962.56;;;17.67;32.52
59009;BME280;44794;42.652;23.318;2022-10-17T12:25:28;95959.47;;;17.73;33.17
59009;BME280;44794;42.652;23.318;2022-10-17T12:28:10;95955.00;;;17.84;32.28
59009;BME280;44794;42.652;23.318;2022-10-17T12:30:52;95953.97;;;17.76;32.86
59009;BME280;44794;42.652;23.318;2022-10-17T12:33:33;95953.38;;;17.72;33.34
59009;BME280;44794;42.652;23.318;2022-10-17T12:38:47;95951.78;;;17.81;33.44
59009;BME280;44794;42.652;23.318;2022-10-17T12:41:12;95945.22;;;17.86;32.92
59009;BME280;44794;42.652;23.318;2022-10-17T12:43:50;95948.69;;;17.87;33.38
59009;BME280;44794;42.652;23.318;2022-10-17T12:49:42;95950.03;;;17.81;32.89
59009;BME280;44794;42.652;23.318;2022-10-17T12:55:13;95953.69;;;17.90;32.38
59009;BME280;44794;42.652;23.318;2022-10-17T12:57:56;95948.81;;;17.85;32.54
59009;BME280;44794;42.652;23.318;2022-10-17T13:00:28;95945.94;;;17.88;33.03
59009;BME280;44794;42.652;23.318;2022-10-17T13:03:03;95942.09;;;17.92;33.14
59009;BME280;44794;42.652;23.318;2022-10-17T13:05:33;95939.53;;;18.02;33.00
59009;BME280;44794;42.652;23.318;2022-10-17T13:08:03;95944.06;;;18.10;32.18
59009;BME280;44794;42.652;23.318;2022-10-17T13:10:33;95941.69;;;18.08;32.95
59009;BME280;44794;42.652;23.318;2022-10-17T13:15:58;95937.84;;;18.11;32.62
59009;BME280;44794;42.652;23.318;2022-10-17T13:18:26;95937.75;;;18.02;32.00
59009;BME280;44794;42.652;23.318;2022-10-17T13:21:05;95937.03;;;18.11;32.06
59009;BME280;44794;42.652;23.318;2022-10-17T13:23:34;95942.97;;;18.13;32.30
59009;BME280;44794;42.652;23.318;2022-10-17T13:28:37;95934.56;;;18.19;32.32
59009;BME280;44794;42.652;23.318;2022-10-17T13:31:02;95933.41;;;18.23;31.78
59009;BME280;44794;42.652;23.318;2022-10-17T13:33:34;95944.78;;;18.12;32.29
59009;BME280;44794;42.652;23.318;2022-10-17T13:36:02;95935.09;;;18.13;31.56
59009;BME280;44794;42.652;23.318;2022-10-17T13:38:31;95937.72;;;18.13;30.98
59009;BME280;44794;42.652;23.318;2022-10-17T13:40:58;95942.97;;;18.13;31.74
59009;BME280;44794;42.652;23.318;2022-10-17T13:43:24;95934.84;;;18.16;31.39
59009;BME280;44794;42.652;23.318;2022-10-17T13:45:59;95937.72;;;18.13;31.47
59009;BME280;44794;42.652;23.318;2022-10-17T13:48:29;95940.72;;;18.08;30.71
59009;BME280;44794;42.652;23.318;2022-10-17T13:50:58;95942.00;;;18.14;30.55
59009;BME280;44794;42.652;23.318;2022-10-17T13:58:38;95931.75;;;18.11;30.82
59009;BME280;44794;42.652;23.318;2022-10-17T14:01:05;95939.44;;;18.03;30.82
59009;BME280;44794;42.652;23.318;2022-10-17T14:03:31;95939.53;;;18.12;31.50
59009;BME280;44794;42.652;23.318;2022-10-17T14:08:29;95941.44;;;18.10;31.35
59009;BME280;44794;42.652;23.318;2022-10-17T14:10:56;95943.69;;;18.15;31.47
59009;BME280;44794;42.652;23.318;2022-10-17T14:13:24;95947.78;;;18.08;32.94
59009;BME280;44794;42.652;23.318;2022-10-17T14:15:53;95941.50;;;17.89;33.82
59009;BME280;44794;42.652;23.318;2022-10-17T14:18:27;95945.66;;;17.91;33.84
59009;BME280;44794;42.652;23.318;2022-10-17T14:20:54;95946.44;;;17.82;33.95
59009;BME280;44794;42.652;23.318;2022-10-17T14:23:41;95944.13;;;17.89;34.18
59009;BME280;44794;42.652;23.318;2022-10-17T14:26:12;95941.53;;;17.78;35.26
59009;BME280;44794;42.652;23.318;2022-10-17T14:28:38;95936.56;;;17.64;35.73
59009;BME280;44794;42.652;23.318;2022-10-17T14:33:46;95929.75;;;17.50;36.64
59009;BME280;44794;42.652;23.318;2022-10-17T14:36:13;95942.91;;;17.50;36.56
59009;BME280;44794;42.652;23.318;2022-10-17T14:38:45;95948.41;;;17.36;37.60
59009;BME280;44794;42.652;23.318;2022-10-17T14:41:29;95943.16;;;17.36;37.82
59009;BME280;44794;42.652;23.318;2022-10-17T14:44:06;95945.53;;;17.29;38.32
59009;BME280;44794;42.652;23.318;2022-10-17T14:46:35;95943.53;;;17.10;38.54